Time;durP1;ratioP1;P1;durP2;ratioP2;P2;SDS_P1;SDS_P2;PMS_P1;PMS_P2;Temp;Humidity;BMP_temperature;BMP_pressure;BME280_temperature;BME280_humidity;BME280_pressure;Samples;Min_cycle;Max_cycle;Signal;HPM_P1;HPM_P2
2024/01/17 00:00:49;;;;;;;;;23.00;22.25;;;;;;;;4992199;28;28572;-80
2024/01/17 00:03:18;;;;;;;;;28.25;21.00;;;;;;;;5009248;28;28760;-82
2024/01/17 00:05:47;;;;;;;;;28.25;23.50;;;;;;;;5009765;28;31001;-80
2024/01/17 00:08:12;;;;;;;;;24.50;22.25;;;;;;;;5011249;28;28475;-83
2024/01/17 00:10:37;;;;;;;;;28.00;20.00;;;;;;;;5009613;28;28416;-82
2024/01/17 00:13:03;;;;;;;;;28.75;27.50;;;;;;;;5008007;28;28782;-82
2024/01/17 00:15:28;;;;;;;;;26.50;24.75;;;;;;;;5005238;28;28555;-83
2024/01/17 00:17:56;;;;;;;;;32.75;26.75;;;;;;;;4990805;28;29958;-82
2024/01/17 00:20:21;;;;;;;;;34.25;27.25;;;;;;;;5014795;28;28494;-82
2024/01/17 00:22:46;;;;;;;;;24.75;23.50;;;;;;;;5008814;28;28693;-81
2024/01/17 00:25:11;;;;;;;;;29.25;25.00;;;;;;;;5005678;28;30693;-84
2024/01/17 00:27:40;;;;;;;;;30.25;24.25;;;;;;;;5011427;28;28476;-81
2024/01/17 00:30:06;;;;;;;;;30.25;26.75;;;;;;;;5011871;28;28516;-82
2024/01/17 00:32:31;;;;;;;;;25.50;23.00;;;;;;;;5009828;28;30745;-82
2024/01/17 00:34:57;;;;;;;;;35.00;28.00;;;;;;;;5010984;28;29711;-82
2024/01/17 00:37:22;;;;;;;;;34.75;27.00;;;;;;;;5010024;28;29472;-82
2024/01/17 00:39:48;;;;;;;;;19.75;19.75;;;;;;;;4995437;28;28487;-81
2024/01/17 00:42:14;;;;;;;;;27.75;24.75;;;;;;;;5007143;28;28784;-82
2024/01/17 00:44:40;;;;;;;;;28.50;24.00;;;;;;;;5009790;28;28637;-82
2024/01/17 00:47:05;;;;;;;;;34.00;29.25;;;;;;;;5012174;28;28560;-84
2024/01/17 00:49:31;;;;;;;;;28.75;26.25;;;;;;;;5011609;28;28851;-83
2024/01/17 00:51:57;;;;;;;;;29.50;23.00;;;;;;;;5015663;28;28881;-82
2024/01/17 00:54:22;;;;;;;;;30.50;26.75;;;;;;;;5013403;28;29587;-83
2024/01/17 00:56:47;;;;;;;;;34.00;25.50;;;;;;;;5020385;28;28586;-85
2024/01/17 00:59:13;;;;;;;;;29.25;28.25;;;;;;;;5010938;28;28936;-84
2024/01/17 01:01:38;;;;;;;;;31.00;27.00;;;;;;;;5011693;28;28639;-83
2024/01/17 01:04:03;;;;;;;;;30.00;22.25;;;;;;;;5010830;28;28783;-81
2024/01/17 01:06:28;;;;;;;;;27.75;24.25;;;;;;;;5010836;28;28535;-83
2024/01/17 01:08:54;;;;;;;;;29.75;27.75;;;;;;;;4992575;28;28534;-84
2024/01/17 01:11:19;;;;;;;;;38.75;30.50;;;;;;;;4993389;28;30764;-84
2024/01/17 01:13:44;;;;;;;;;30.00;28.00;;;;;;;;4991941;28;31221;-82
2024/01/17 01:16:10;;;;;;;;;32.50;28.50;;;;;;;;4993930;28;28742;-82
2024/01/17 01:18:35;;;;;;;;;44.75;33.00;;;;;;;;5014709;28;28458;-83
2024/01/17 01:21:00;;;;;;;;;39.75;32.25;;;;;;;;5009676;28;29670;-82
2024/01/17 01:23:27;;;;;;;;;30.25;29.50;;;;;;;;5011711;28;29987;-82
2024/01/17 01:25:52;;;;;;;;;36.00;29.50;;;;;;;;5009109;28;29257;-82
2024/01/17 01:28:17;;;;;;;;;41.00;30.25;;;;;;;;5009501;28;28404;-81
2024/01/17 01:30:43;;;;;;;;;39.75;28.25;;;;;;;;5009286;28;28432;-83
2024/01/17 01:33:08;;;;;;;;;31.50;27.25;;;;;;;;4992334;28;31166;-80
2024/01/17 01:35:33;;;;;;;;;38.25;29.75;;;;;;;;5000763;28;29505;-82
2024/01/17 01:37:58;;;;;;;;;43.50;30.50;;;;;;;;4990647;28;28785;-81
2024/01/17 01:40:24;;;;;;;;;28.75;25.50;;;;;;;;4991124;28;29295;-79
2024/01/17 01:42:49;;;;;;;;;33.75;27.25;;;;;;;;4994720;28;30708;-83
2024/01/17 01:45:14;;;;;;;;;35.75;28.50;;;;;;;;5009395;28;28904;-82
2024/01/17 01:47:40;;;;;;;;;40.25;27.50;;;;;;;;5013069;28;28593;-81
2024/01/17 01:50:05;;;;;;;;;37.25;29.75;;;;;;;;5006228;28;29342;-81
2024/01/17 01:52:34;;;;;;;;;32.75;31.25;;;;;;;;5015145;28;30172;-78
2024/01/17 01:55:00;;;;;;;;;28.00;24.00;;;;;;;;5012827;28;28489;-81
2024/01/17 01:57:26;;;;;;;;;31.25;27.50;;;;;;;;5013078;28;28555;-80
2024/01/17 01:59:52;;;;;;;;;34.00;29.75;;;;;;;;5016171;28;28661;-81
2024/01/17 02:02:17;;;;;;;;;34.50;29.00;;;;;;;;5017235;28;28888;-81
2024/01/17 02:04:42;;;;;;;;;30.25;28.25;;;;;;;;5014600;28;28763;-84
2024/01/17 02:07:10;;;;;;;;;34.50;28.25;;;;;;;;5017251;28;29262;-83
2024/01/17 02:09:35;;;;;;;;;37.25;30.00;;;;;;;;5009969;28;28534;-83
2024/01/17 02:12:00;;;;;;;;;42.25;30.75;;;;;;;;5013264;28;29344;-83
2024/01/17 02:14:26;;;;;;;;;41.50;35.00;;;;;;;;4990084;28;28601;-85
2024/01/17 02:16:54;;;;;;;;;39.75;33.75;;;;;;;;5009735;28;28024;-84
2024/01/17 02:19:21;;;;;;;;;40.25;36.00;;;;;;;;4998941;28;29955;-88
2024/01/17 02:21:46;;;;;;;;;39.50;35.00;;;;;;;;5010434;28;29999;-86
2024/01/17 02:24:18;;;;;;;;;38.00;33.50;;;;;;;;5004897;28;28754;-84
2024/01/17 02:26:44;;;;;;;;;36.25;31.00;;;;;;;;5013274;28;28476;-86
2024/01/17 02:29:10;;;;;;;;;41.00;35.25;;;;;;;;4993291;28;28440;-86
2024/01/17 02:31:35;;;;;;;;;42.75;35.75;;;;;;;;5002826;28;29907;-82
2024/01/17 02:34:01;;;;;;;;;39.50;34.75;;;;;;;;4990831;28;28539;-82
2024/01/17 02:36:26;;;;;;;;;43.75;36.00;;;;;;;;4991577;28;28410;-81
2024/01/17 02:38:51;;;;;;;;;36.25;30.50;;;;;;;;5007323;28;28470;-81
2024/01/17 02:41:17;;;;;;;;;45.50;34.25;;;;;;;;5008970;28;28432;-82
2024/01/17 02:43:42;;;;;;;;;36.25;31.75;;;;;;;;5008643;28;29271;-83
2024/01/17 02:46:08;;;;;;;;;49.25;36.75;;;;;;;;5012507;28;28772;-86
2024/01/17 02:48:33;;;;;;;;;46.25;36.00;;;;;;;;5005212;28;28520;-85
2024/01/17 02:50:58;;;;;;;;;34.50;32.25;;;;;;;;5018608;28;29623;-86
2024/01/17 02:53:24;;;;;;;;;44.00;36.50;;;;;;;;4997814;28;28570;-87
2024/01/17 02:55:49;;;;;;;;;42.25;36.00;;;;;;;;5014401;28;28505;-89
2024/01/17 02:58:15;;;;;;;;;44.00;35.75;;;;;;;;5025799;28;29338;-87
2024/01/17 03:00:42;;;;;;;;;40.50;36.25;;;;;;;;4998572;28;29734;-88
2024/01/17 03:03:08;;;;;;;;;40.25;33.50;;;;;;;;5013952;28;28902;-89
2024/01/17 03:05:35;;;;;;;;;44.00;35.75;;;;;;;;5000481;28;28172;-87
2024/01/17 03:08:01;;;;;;;;;43.75;31.50;;;;;;;;5007299;28;28123;-88
2024/01/17 03:10:26;;;;;;;;;42.00;33.25;;;;;;;;5013229;28;28346;-88
2024/01/17 03:12:52;;;;;;;;;42.25;37.50;;;;;;;;5001160;28;28435;-90
2024/01/17 03:15:17;;;;;;;;;44.50;35.50;;;;;;;;5015099;28;28157;-87
2024/01/17 03:17:42;;;;;;;;;39.75;31.75;;;;;;;;4999624;28;29245;-87
2024/01/17 03:20:10;;;;;;;;;47.50;36.50;;;;;;;;5013014;28;29196;-91
2024/01/17 03:22:36;;;;;;;;;38.00;32.00;;;;;;;;5000542;28;28867;-89
2024/01/17 03:25:02;;;;;;;;;37.50;32.25;;;;;;;;5001916;28;27973;-88
2024/01/17 03:27:28;;;;;;;;;39.50;35.50;;;;;;;;5013085;28;27946;-82
2024/01/17 03:29:53;;;;;;;;;43.75;35.00;;;;;;;;5005926;28;29885;-81
2024/01/17 03:32:18;;;;;;;;;49.50;36.25;;;;;;;;5007858;28;28502;-82
2024/01/17 03:34:43;;;;;;;;;46.75;37.25;;;;;;;;4996782;28;28570;-85
2024/01/17 03:37:09;;;;;;;;;47.00;40.00;;;;;;;;5014713;28;28455;-88
2024/01/17 03:39:34;;;;;;;;;44.75;38.00;;;;;;;;5018873;28;28650;-85
2024/01/17 03:42:15;;;;;;;;;;;;;;;;;;;;;
2024/01/17 03:44:42;;;;;;;;;54.75;42.00;;;;;;;;5010186;28;54405;-80
2024/01/17 03:47:07;;;;;;;;;48.25;39.25;;;;;;;;5006478;28;29362;-78
2024/01/17 03:49:33;;;;;;;;;56.25;42.50;;;;;;;;5003233;28;31061;-78
2024/01/17 03:52:01;;;;;;;;;55.25;40.25;;;;;;;;5006925;28;28727;-77
2024/01/17 03:54:26;;;;;;;;;56.50;42.00;;;;;;;;5007571;28;28515;-78
2024/01/17 03:57:03;;;;;;;;;51.25;39.00;;;;;;;;5005186;28;28857;-79
2024/01/17 03:59:30;;;;;;;;;49.00;41.00;;;;;;;;4991098;28;28431;-78
2024/01/17 04:01:56;;;;;;;;;52.00;40.00;;;;;;;;5008229;28;28439;-78
2024/01/17 04:04:24;;;;;;;;;52.25;40.00;;;;;;;;4999958;28;28620;-79
2024/01/17 04:06:50;;;;;;;;;50.25;41.75;;;;;;;;5010905;28;28450;-80
2024/01/17 04:09:18;;;;;;;;;47.75;38.75;;;;;;;;5010843;28;29195;-80
2024/01/17 04:11:56;;;;;;;;;53.50;39.50;;;;;;;;5010018;28;28427;-79
2024/01/17 04:14:42;;;;;;;;;44.25;39.25;;;;;;;;4983726;28;28583;-80
2024/01/17 04:17:39;;;;;;;;;42.75;35.75;;;;;;;;4998033;28;28612;-78
2024/01/17 04:23:07;;;;;;;;;43.25;36.75;;;;;;;;5010162;28;28442;-77
2024/01/17 04:26:03;;;;;;;;;49.75;40.00;;;;;;;;5009481;28;28621;-79
2024/01/17 04:28:55;;;;;;;;;61.75;41.25;;;;;;;;5008969;28;28535;-79
2024/01/17 04:32:04;;;;;;;;;;;;;;;;;;;;;
2024/01/17 04:34:39;;;;;;;;;55.25;41.00;;;;;;;;4994736;28;55346;-78
2024/01/17 04:37:04;;;;;;;;;50.00;39.25;;;;;;;;4997433;28;28687;-79
2024/01/17 04:39:53;;;;;;;;;39.75;36.25;;;;;;;;5009281;28;29017;-78
2024/01/17 04:42:22;;;;;;;;;44.75;33.50;;;;;;;;4987031;28;28774;-79
2024/01/17 04:45:08;;;;;;;;;;;;;;;;;;;;;
2024/01/17 04:47:34;;;;;;;;;54.75;42.00;;;;;;;;5008721;28;53026;-77
2024/01/17 04:50:12;;;;;;;;;55.75;44.00;;;;;;;;5011025;28;28804;-79
2024/01/17 04:53:01;;;;;;;;;52.00;43.00;;;;;;;;4986680;28;29954;-80
2024/01/17 04:55:42;;;;;;;;;55.25;42.25;;;;;;;;5008697;28;29442;-83
2024/01/17 04:58:31;;;;;;;;;67.75;48.50;;;;;;;;5009438;28;28663;-79
2024/01/17 05:00:56;;;;;;;;;56.75;43.00;;;;;;;;5007819;28;32598;-83
2024/01/17 05:03:36;;;;;;;;;54.50;41.00;;;;;;;;5002234;28;31046;-77
2024/01/17 05:06:07;;;;;;;;;57.25;44.00;;;;;;;;4971010;28;45164;-79
2024/01/17 05:09:07;;;;;;;;;53.25;37.75;;;;;;;;4987668;28;36482;-77
2024/01/17 05:11:41;;;;;;;;;57.00;43.50;;;;;;;;4983106;28;28534;-76
2024/01/17 05:14:14;;;;;;;;;56.00;44.00;;;;;;;;5002972;28;28845;-79
2024/01/17 05:16:40;;;;;;;;;57.25;43.50;;;;;;;;4971780;28;28922;-78
2024/01/17 05:19:07;;;;;;;;;43.25;37.50;;;;;;;;4989154;28;28940;-79
2024/01/17 05:21:32;;;;;;;;;66.50;52.75;;;;;;;;5002774;28;28499;-78
2024/01/17 05:23:58;;;;;;;;;60.25;47.25;;;;;;;;5003628;28;29942;-78
2024/01/17 05:26:23;;;;;;;;;68.25;53.50;;;;;;;;5001633;28;28543;-79
2024/01/17 05:28:48;;;;;;;;;67.75;52.50;;;;;;;;4989336;28;28802;-80
2024/01/17 05:31:14;;;;;;;;;64.75;48.00;;;;;;;;4985681;28;29278;-77
2024/01/17 05:33:40;;;;;;;;;64.50;50.00;;;;;;;;4990320;28;28478;-78
2024/01/17 05:36:05;;;;;;;;;46.75;36.25;;;;;;;;4991666;28;28532;-79
2024/01/17 05:38:30;;;;;;;;;62.50;46.75;;;;;;;;5009233;28;28523;-79
2024/01/17 05:40:56;;;;;;;;;59.25;47.50;;;;;;;;4991284;28;29985;-78
2024/01/17 05:43:22;;;;;;;;;49.00;40.25;;;;;;;;4990471;28;28631;-76
2024/01/17 05:45:47;;;;;;;;;57.25;39.75;;;;;;;;4989474;28;28492;-77
2024/01/17 05:48:13;;;;;;;;;62.00;47.50;;;;;;;;5004250;28;28435;-80
2024/01/17 05:50:38;;;;;;;;;57.00;47.25;;;;;;;;4999814;28;28697;-79
2024/01/17 05:53:03;;;;;;;;;54.50;43.75;;;;;;;;4999149;28;28474;-81
2024/01/17 05:55:29;;;;;;;;;54.75;43.00;;;;;;;;4969897;28;28612;-80
2024/01/17 05:57:54;;;;;;;;;50.75;40.25;;;;;;;;5005748;28;31416;-78
2024/01/17 06:00:20;;;;;;;;;41.00;35.75;;;;;;;;5006823;28;28383;-79
2024/01/17 06:02:45;;;;;;;;;54.00;39.25;;;;;;;;4999419;28;28427;-78
2024/01/17 06:05:11;;;;;;;;;47.25;37.25;;;;;;;;5007234;28;28902;-79
2024/01/17 06:07:38;;;;;;;;;58.00;44.00;;;;;;;;5006022;28;28873;-78
2024/01/17 06:10:04;;;;;;;;;45.00;37.00;;;;;;;;5001908;28;28673;-79
2024/01/17 06:12:29;;;;;;;;;52.00;41.00;;;;;;;;5007901;28;28679;-80
2024/01/17 06:14:54;;;;;;;;;47.75;39.00;;;;;;;;5007981;28;28494;-78
2024/01/17 06:17:20;;;;;;;;;47.50;40.25;;;;;;;;5004601;28;28652;-80
2024/01/17 06:19:45;;;;;;;;;46.25;36.25;;;;;;;;5008285;28;28865;-77
2024/01/17 06:22:12;;;;;;;;;42.00;35.75;;;;;;;;5000754;28;28419;-81
2024/01/17 06:24:37;;;;;;;;;48.50;36.25;;;;;;;;5002246;28;28577;-82
2024/01/17 06:27:04;;;;;;;;;52.75;42.25;;;;;;;;4989919;28;28828;-78
2024/01/17 06:29:30;;;;;;;;;40.75;37.50;;;;;;;;5006674;28;28730;-77
2024/01/17 06:31:56;;;;;;;;;47.00;36.00;;;;;;;;5007568;28;28884;-80
2024/01/17 06:34:21;;;;;;;;;53.50;41.00;;;;;;;;5007971;28;28475;-77
2024/01/17 06:36:47;;;;;;;;;42.50;39.00;;;;;;;;5001288;28;28496;-79
2024/01/17 06:39:12;;;;;;;;;47.25;37.00;;;;;;;;5011031;28;29818;-78
2024/01/17 06:41:38;;;;;;;;;53.50;42.00;;;;;;;;5007390;28;28404;-79
2024/01/17 06:44:03;;;;;;;;;43.75;36.25;;;;;;;;5009195;28;28487;-79
2024/01/17 06:46:28;;;;;;;;;53.00;41.25;;;;;;;;4998376;28;28937;-81
2024/01/17 06:48:54;;;;;;;;;38.00;31.75;;;;;;;;5001864;28;28419;-80
2024/01/17 06:51:19;;;;;;;;;36.75;25.75;;;;;;;;5005290;28;28755;-79
2024/01/17 06:53:44;;;;;;;;;41.75;35.25;;;;;;;;5005707;28;28854;-79
2024/01/17 06:56:09;;;;;;;;;49.75;37.50;;;;;;;;5005905;28;28660;-79
2024/01/17 06:58:35;;;;;;;;;51.75;37.00;;;;;;;;5011006;28;28518;-79
2024/01/17 07:01:00;;;;;;;;;43.50;39.00;;;;;;;;5006223;28;28863;-80
2024/01/17 07:03:25;;;;;;;;;35.50;28.00;;;;;;;;5004756;28;28897;-81
2024/01/17 07:05:51;;;;;;;;;36.25;34.50;;;;;;;;5007253;28;28935;-80
2024/01/17 07:08:16;;;;;;;;;45.00;32.50;;;;;;;;5006422;28;30586;-80
2024/01/17 07:10:41;;;;;;;;;41.25;31.00;;;;;;;;5008132;28;28569;-79
2024/01/17 07:13:07;;;;;;;;;38.75;26.25;;;;;;;;5006282;28;28486;-84
2024/01/17 07:15:32;;;;;;;;;48.50;38.75;;;;;;;;4986768;28;28492;-81
2024/01/17 07:17:58;;;;;;;;;25.25;19.50;;;;;;;;5002192;28;29504;-82
2024/01/17 07:20:23;;;;;;;;;37.00;32.00;;;;;;;;5005079;28;28565;-80
2024/01/17 07:22:54;;;;;;;;;51.00;37.75;;;;;;;;5012130;28;28842;-81
2024/01/17 07:25:20;;;;;;;;;34.75;32.75;;;;;;;;5005674;28;28659;-80
2024/01/17 07:27:45;;;;;;;;;44.50;31.00;;;;;;;;4999741;28;28605;-81
2024/01/17 07:30:12;;;;;;;;;40.75;37.00;;;;;;;;5007814;28;28528;-81
2024/01/17 07:32:38;;;;;;;;;42.75;35.50;;;;;;;;5009297;28;28576;-81
2024/01/17 07:35:03;;;;;;;;;47.25;36.50;;;;;;;;5018330;28;29228;-84
2024/01/17 07:37:31;;;;;;;;;52.00;35.50;;;;;;;;5024981;28;28612;-82
2024/01/17 07:39:56;;;;;;;;;37.25;30.00;;;;;;;;5026058;28;29769;-79
2024/01/17 07:42:21;;;;;;;;;37.00;31.50;;;;;;;;5005700;28;35507;-81
2024/01/17 07:44:47;;;;;;;;;34.75;33.50;;;;;;;;5014305;28;30142;-79
2024/01/17 07:47:12;;;;;;;;;55.75;41.00;;;;;;;;5012357;28;8864;-80
2024/01/17 07:49:38;;;;;;;;;53.50;42.25;;;;;;;;5026959;28;8872;-79
2024/01/17 07:52:04;;;;;;;;;61.00;43.00;;;;;;;;5033090;28;10015;-79
2024/01/17 07:54:30;;;;;;;;;53.75;38.25;;;;;;;;5026324;28;11093;-79
2024/01/17 07:56:55;;;;;;;;;48.00;33.00;;;;;;;;5009364;28;11002;-79
2024/01/17 07:59:20;;;;;;;;;48.75;37.75;;;;;;;;5017307;28;33936;-80
2024/01/17 08:01:46;;;;;;;;;61.00;43.50;;;;;;;;5026986;28;8826;-79
2024/01/17 08:04:11;;;;;;;;;55.25;41.50;;;;;;;;5030762;28;10085;-78
2024/01/17 08:06:36;;;;;;;;;80.50;57.50;;;;;;;;5032656;28;8846;-80
2024/01/17 08:09:05;;;;;;;;;54.50;38.75;;;;;;;;5027899;28;8843;-75
2024/01/17 08:11:34;;;;;;;;;57.75;42.75;;;;;;;;5027218;28;8790;-79
2024/01/17 08:14:02;;;;;;;;;60.25;45.00;;;;;;;;5032169;28;11722;-75
2024/01/17 08:16:28;;;;;;;;;60.00;42.25;;;;;;;;5026798;28;11109;-75
2024/01/17 08:18:54;;;;;;;;;55.00;42.25;;;;;;;;5038557;28;10686;-78
2024/01/17 08:21:19;;;;;;;;;54.75;41.00;;;;;;;;5032000;28;10490;-81
2024/01/17 08:23:45;;;;;;;;;56.00;41.75;;;;;;;;5030126;28;8954;-79
2024/01/17 08:26:10;;;;;;;;;48.75;40.25;;;;;;;;5031535;28;8826;-78
2024/01/17 08:28:35;;;;;;;;;47.75;40.00;;;;;;;;5031365;28;8831;-76
2024/01/17 08:31:00;;;;;;;;;46.00;36.00;;;;;;;;5022208;28;8825;-78
2024/01/17 08:33:26;;;;;;;;;40.00;35.75;;;;;;;;5025538;28;8825;-78
2024/01/17 08:35:51;;;;;;;;;44.75;34.50;;;;;;;;5027896;28;9694;-79
2024/01/17 08:38:16;;;;;;;;;42.50;35.25;;;;;;;;5031000;28;8807;-77
2024/01/17 08:40:42;;;;;;;;;33.00;30.50;;;;;;;;5020887;28;29283;-78
2024/01/17 08:43:07;;;;;;;;;37.75;33.00;;;;;;;;5024686;28;8821;-78
2024/01/17 08:45:32;;;;;;;;;40.00;30.25;;;;;;;;5036065;28;8848;-77
2024/01/17 08:47:57;;;;;;;;;40.50;31.50;;;;;;;;5025657;28;9609;-79
2024/01/17 08:50:23;;;;;;;;;39.25;33.00;;;;;;;;4996508;28;1082451;-78
2024/01/17 08:52:48;;;;;;;;;43.00;37.00;;;;;;;;5015981;28;28956;-78
2024/01/17 08:55:19;;;;;;;;;35.75;34.00;;;;;;;;5013920;28;28602;-77
2024/01/17 08:57:44;;;;;;;;;47.00;36.50;;;;;;;;5004879;28;30586;-76
2024/01/17 09:00:11;;;;;;;;;40.00;34.50;;;;;;;;4965495;28;280299;-76
2024/01/17 09:07:49;;;;;;;;;;;;;;;;;;567028;28;217994966;-75
2024/01/17 09:13:13;;;;;;;;;28.50;21.00;;;;;;;;2;225793855;225793855;-75
2024/01/17 09:15:38;;;;;;;;;40.00;32.50;;;;;;;;4877896;28;1544276;-76
2024/01/17 09:18:04;;;;;;;;;52.25;40.75;;;;;;;;4987519;28;31770;-80
2024/01/17 09:20:35;;;;;;;;;40.00;34.50;;;;;;;;4990757;28;28856;-80
2024/01/17 09:23:00;;;;;;;;;49.75;39.25;;;;;;;;4983767;28;46511;-81
2024/01/17 09:32:57;;;;;;;;;52.00;40.00;;;;;;;;3615829;28;270090846;-77
2024/01/17 09:38:08;;;;;;;;;28.50;28.50;;;;;;;;2;173158940;173158940;-76
2024/01/17 09:40:33;;;;;;;;;33.00;30.25;;;;;;;;1504030;28;99459755;-77
2024/01/17 09:42:58;;;;;;;;;27.50;25.25;;;;;;;;4986705;28;28647;-77
2024/01/17 09:45:24;;;;;;;;;33.00;28.00;;;;;;;;4987675;28;28421;-77
2024/01/17 09:47:53;;;;;;;;;36.50;29.25;;;;;;;;4985542;28;28656;-76
2024/01/17 09:50:18;;;;;;;;;41.75;33.50;;;;;;;;4985790;28;30196;-77
2024/01/17 09:52:44;;;;;;;;;31.00;28.75;;;;;;;;5007866;28;28556;-78
2024/01/17 09:55:10;;;;;;;;;42.75;33.50;;;;;;;;4991996;28;29084;-76
2024/01/17 09:57:40;;;;;;;;;38.25;33.75;;;;;;;;5001586;28;29123;-79
2024/01/17 10:00:07;;;;;;;;;34.25;29.75;;;;;;;;4979934;28;86066;-77
2024/01/17 10:02:34;;;;;;;;;44.25;34.75;;;;;;;;4991395;28;29028;-77
2024/01/17 10:05:00;;;;;;;;;43.75;37.00;;;;;;;;4989178;28;28897;-77
2024/01/17 10:07:26;;;;;;;;;37.00;29.50;;;;;;;;5000353;28;30137;-76
2024/01/17 10:11:04;;;;;;;;;;;;;;;;;;1186098;28;183222252;-75
2024/01/17 10:20:00;;;;;;;;;19.00;19.00;;;;;;;;331693;28;247369790;-77
2024/01/17 10:29:48;;;;;;;;;30.00;27.50;;;;;;;;997540;28;259956248;-77
2024/01/17 10:39:03;;;;;;;;;19.00;16.50;;;;;;;;2;270094149;270094149;-74
2024/01/17 10:41:59;;;;;;;;;19.50;19.50;;;;;;;;2;154176587;154176587;-77
2024/01/17 10:51:59;;;;;;;;;10.00;10.00;;;;;;;;342090;28;269338960;-75
2024/01/17 10:59:26;;;;;;;;;18.50;18.50;;;;;;;;2;240111825;240111825;-79
2024/01/17 11:03:19;;;;;;;;;26.00;17.50;;;;;;;;2;227329444;227329444;-78
2024/01/17 11:11:41;;;;;;;;;14.50;14.50;;;;;;;;862593;28;222985051;-79
2024/01/17 11:19:44;;;;;;;;;14.50;14.50;;;;;;;;2;250642730;250642730;-81
2024/01/17 11:26:57;;;;;;;;;20.50;9.00;;;;;;;;2;203126360;203126360;-77
2024/01/17 11:33:31;;;;;;;;;14.50;14.50;;;;;;;;2;205641087;205641087;-76
2024/01/17 11:39:05;;;;;;;;;0.50;0.50;;;;;;;;2;158543050;158543050;-81
2024/01/17 11:43:33;;;;;;;;;8.00;8.00;;;;;;;;2;149074270;149074270;-79
2024/01/17 11:46:02;;;;;;;;;16.33;12.00;;;;;;;;2788242;28;55847218;-75
2024/01/17 11:48:28;;;;;;;;;14.33;12.67;;;;;;;;5001158;28;28677;-76
2024/01/17 11:50:54;;;;;;;;;16.67;13.00;;;;;;;;5003457;28;28613;-75
2024/01/17 11:53:22;;;;;;;;;15.33;10.33;;;;;;;;5002261;28;28723;-75
2024/01/17 11:55:49;;;;;;;;;14.67;11.67;;;;;;;;5002302;28;28959;-77
2024/01/17 11:58:15;;;;;;;;;12.67;11.33;;;;;;;;5003366;28;29772;-73
2024/01/17 12:00:41;;;;;;;;;22.25;15.25;;;;;;;;5000983;28;28848;-77
2024/01/17 12:03:06;;;;;;;;;21.67;15.33;;;;;;;;4999474;28;28801;-74
2024/01/17 12:05:35;;;;;;;;;17.00;17.00;;;;;;;;4987229;28;31004;-73
2024/01/17 12:08:03;;;;;;;;;19.75;15.25;;;;;;;;4985334;28;29104;-73
2024/01/17 12:10:28;;;;;;;;;18.00;12.00;;;;;;;;5002613;28;29062;-74
2024/01/17 12:12:56;;;;;;;;;14.67;14.00;;;;;;;;5004457;28;28974;-74
2024/01/17 12:15:21;;;;;;;;;8.00;8.00;;;;;;;;5001188;28;28923;-73
2024/01/17 12:17:46;;;;;;;;;16.00;12.67;;;;;;;;5003796;28;28885;-73
2024/01/17 12:20:11;;;;;;;;;15.25;13.00;;;;;;;;5005556;28;28864;-75
2024/01/17 12:22:37;;;;;;;;;14.00;13.00;;;;;;;;5002416;28;29648;-74
2024/01/17 12:25:05;;;;;;;;;22.00;17.25;;;;;;;;5002735;28;29506;-78
2024/01/17 12:27:32;;;;;;;;;13.33;11.33;;;;;;;;5008869;28;28595;-78
2024/01/17 12:30:01;;;;;;;;;11.33;11.33;;;;;;;;5007003;28;28847;-79
2024/01/17 12:32:27;;;;;;;;;16.33;15.00;;;;;;;;5005089;28;28990;-77
2024/01/17 12:34:53;;;;;;;;;17.33;15.67;;;;;;;;5003290;28;28951;-80
2024/01/17 12:37:18;;;;;;;;;16.67;16.67;;;;;;;;5004963;28;28531;-79
2024/01/17 12:39:46;;;;;;;;;18.00;17.00;;;;;;;;5008479;28;28526;-83
2024/01/17 12:42:12;;;;;;;;;39.50;28.50;;;;;;;;5012462;28;29428;-84
2024/01/17 12:44:40;;;;;;;;;24.00;19.75;;;;;;;;5005501;28;29020;-80
2024/01/17 12:47:05;;;;;;;;;20.75;17.25;;;;;;;;5006215;28;28408;-75
2024/01/17 12:49:31;;;;;;;;;26.00;22.33;;;;;;;;5001715;28;28423;-80
2024/01/17 12:51:56;;;;;;;;;26.50;23.00;;;;;;;;5008263;28;28947;-79
2024/01/17 12:54:22;;;;;;;;;15.50;15.50;;;;;;;;5007151;28;29899;-79
2024/01/17 12:56:48;;;;;;;;;19.00;14.50;;;;;;;;5009845;28;28937;-78
2024/01/17 12:59:15;;;;;;;;;19.00;19.00;;;;;;;;5006937;28;28644;-79
2024/01/17 13:01:41;;;;;;;;;18.25;18.25;;;;;;;;5006804;28;28584;-80
2024/01/17 13:04:07;;;;;;;;;22.33;17.33;;;;;;;;5009012;28;29224;-80
2024/01/17 13:06:45;;;;;;;;;21.50;19.00;;;;;;;;4990995;28;28807;-79
2024/01/17 13:09:17;;;;;;;;;15.67;15.67;;;;;;;;5008696;28;28849;-79
2024/01/17 13:11:56;;;;;;;;;17.67;13.00;;;;;;;;4994398;28;28684;-79
2024/01/17 13:14:22;;;;;;;;;14.67;13.67;;;;;;;;5006728;28;30559;-78
2024/01/17 13:16:47;;;;;;;;;18.00;16.67;;;;;;;;5001498;28;28844;-78
2024/01/17 13:19:13;;;;;;;;;18.00;16.33;;;;;;;;4994726;28;28765;-77
2024/01/17 13:21:40;;;;;;;;;18.00;18.00;;;;;;;;5000964;28;29765;-78
2024/01/17 13:24:05;;;;;;;;;21.00;19.00;;;;;;;;5003539;28;28832;-77
2024/01/17 13:26:35;;;;;;;;;18.67;16.67;;;;;;;;4999321;28;29032;-78
2024/01/17 13:29:00;;;;;;;;;18.33;17.33;;;;;;;;4996200;28;28524;-76
2024/01/17 13:31:26;;;;;;;;;21.00;16.67;;;;;;;;5007894;28;29076;-77
2024/01/17 13:33:51;;;;;;;;;18.33;16.00;;;;;;;;5005847;28;28523;-77
2024/01/17 13:36:17;;;;;;;;;12.00;11.00;;;;;;;;5006749;28;28543;-77
2024/01/17 13:38:42;;;;;;;;;13.67;13.67;;;;;;;;4990293;28;28503;-78
2024/01/17 13:41:08;;;;;;;;;13.67;11.33;;;;;;;;5005548;28;28736;-77
2024/01/17 13:43:33;;;;;;;;;16.33;14.00;;;;;;;;5005910;28;28652;-78
2024/01/17 13:45:58;;;;;;;;;16.67;16.33;;;;;;;;5006779;28;28540;-78
2024/01/17 13:48:23;;;;;;;;;14.00;13.33;;;;;;;;4990026;28;28564;-78
2024/01/17 13:50:49;;;;;;;;;12.00;10.00;;;;;;;;5008520;28;29119;-78
2024/01/17 13:53:32;;;;;;;;;14.00;12.00;;;;;;;;5006262;28;28949;-78
2024/01/17 13:55:58;;;;;;;;;17.33;15.33;;;;;;;;5007446;28;28765;-78
2024/01/17 13:58:23;;;;;;;;;18.00;15.00;;;;;;;;4995469;28;28757;-78
2024/01/17 14:00:52;;;;;;;;;22.33;20.67;;;;;;;;5016365;28;29265;-78
2024/01/17 14:03:17;;;;;;;;;19.00;15.00;;;;;;;;5007984;28;29593;-79
2024/01/17 14:05:42;;;;;;;;;19.00;19.00;;;;;;;;5005695;28;28527;-78
2024/01/17 14:08:08;;;;;;;;;15.67;15.67;;;;;;;;5007811;28;28836;-78
2024/01/17 14:10:56;;;;;;;;;19.00;18.33;;;;;;;;5006180;28;28944;-80
2024/01/17 14:13:35;;;;;;;;;16.33;16.33;;;;;;;;5004440;28;29271;-77
2024/01/17 14:16:06;;;;;;;;;20.00;16.00;;;;;;;;4997951;28;28547;-77
2024/01/17 14:18:43;;;;;;;;;17.33;16.33;;;;;;;;4988708;28;28420;-75
2024/01/17 14:21:16;;;;;;;;;16.67;16.67;;;;;;;;5006901;28;28813;-76
2024/01/17 14:23:53;;;;;;;;;21.67;18.67;;;;;;;;5006924;28;28622;-76
2024/01/17 14:26:29;;;;;;;;;21.67;18.67;;;;;;;;5006008;28;28527;-75
2024/01/17 14:29:08;;;;;;;;;20.33;14.33;;;;;;;;5002944;28;28558;-75
2024/01/17 14:31:54;;;;;;;;;23.33;23.33;;;;;;;;5005455;28;28567;-80
2024/01/17 14:34:28;;;;;;;;;27.67;23.67;;;;;;;;5002681;28;28675;-77
2024/01/17 14:37:07;;;;;;;;;23.33;23.33;;;;;;;;4997233;28;28883;-77
2024/01/17 14:39:47;;;;;;;;;28.00;23.67;;;;;;;;5004740;28;28589;-77
2024/01/17 14:42:54;;;;;;;;;33.00;25.00;;;;;;;;5001064;28;28758;-76
2024/01/17 14:45:22;;;;;;;;;26.33;23.00;;;;;;;;5005640;28;28978;-77
2024/01/17 14:47:59;;;;;;;;;25.00;22.67;;;;;;;;5003703;28;28838;-76
2024/01/17 14:50:42;;;;;;;;;22.00;21.00;;;;;;;;5007013;28;28904;-79
2024/01/17 14:53:24;;;;;;;;;25.33;24.33;;;;;;;;4994681;28;29264;-76
2024/01/17 14:56:00;;;;;;;;;25.25;24.25;;;;;;;;5007080;28;28514;-79
2024/01/17 14:58:37;;;;;;;;;17.33;14.67;;;;;;;;5004588;28;29047;-77
2024/01/17 15:01:13;;;;;;;;;10.00;9.67;;;;;;;;5004713;28;28855;-77
2024/01/17 15:03:50;;;;;;;;;12.00;10.33;;;;;;;;5005429;28;29013;-78
2024/01/17 15:06:29;;;;;;;;;11.67;10.67;;;;;;;;4993893;28;29358;-77
2024/01/17 15:12:02;;;;;;;;;8.00;8.00;;;;;;;;5005621;28;28700;-82
2024/01/17 15:14:42;;;;;;;;;10.33;10.00;;;;;;;;5005653;28;29569;-79
2024/01/17 15:17:13;;;;;;;;;9.33;6.67;;;;;;;;5001600;28;28657;-81
2024/01/17 15:19:53;;;;;;;;;10.00;10.00;;;;;;;;4988328;28;28716;-79
2024/01/17 15:22:30;;;;;;;;;9.67;6.67;;;;;;;;5008038;28;28459;-81
2024/01/17 15:25:21;;;;;;;;;;;;;;;;;;;;;
2024/01/17 15:27:47;;;;;;;;;6.67;6.00;;;;;;;;4995328;28;57452;-80
2024/01/17 15:30:26;;;;;;;;;7.00;7.00;;;;;;;;5008933;28;28535;-82
2024/01/17 15:32:55;;;;;;;;;9.67;9.67;;;;;;;;5010292;28;28409;-82
2024/01/17 15:35:20;;;;;;;;;5.33;5.33;;;;;;;;5009498;28;28874;-80
2024/01/17 15:37:49;;;;;;;;;6.00;5.00;;;;;;;;4998383;28;29671;-83
2024/01/17 15:40:16;;;;;;;;;4.00;3.00;;;;;;;;5010201;28;28494;-80
2024/01/17 15:42:41;;;;;;;;;6.00;5.00;;;;;;;;5004546;28;28938;-80
2024/01/17 15:45:12;;;;;;;;;3.67;3.67;;;;;;;;5008252;28;28722;-82
2024/01/17 15:47:39;;;;;;;;;8.33;6.67;;;;;;;;5008111;28;28585;-80
2024/01/17 15:50:06;;;;;;;;;5.67;5.33;;;;;;;;4993051;28;28522;-80
2024/01/17 15:52:32;;;;;;;;;10.00;9.00;;;;;;;;4995297;28;28363;-80